Time;durP1;ratioP1;P1;durP2;ratioP2;P2;SDS_P1;SDS_P2;PMS_P1;PMS_P2;Temp;Humidity;BMP_temperature;BMP_pressure;BME280_temperature;BME280_humidity;BME280_pressure;Samples;Min_cycle;Max_cycle;Signal;HPM_P1;HPM_P2
2022/11/25 00:00:20;;;;;;;;;;;6.90;99.90;;;;;;5089654;28;19928;-68
2022/11/25 00:02:45;;;;;;;;;;;6.90;99.90;;;;;;5087418;28;20500;-68
2022/11/25 00:05:10;;;;;;;;;;;6.90;99.90;;;;;;5092224;28;20029;-68
2022/11/25 00:07:36;;;;;;;;;;;6.90;99.90;;;;;;5091484;28;19924;-69
2022/11/25 00:10:02;;;;;;;;;;;6.90;99.90;;;;;;5094304;28;20446;-68
2022/11/25 00:12:28;;;;;;;;;;;6.90;99.90;;;;;;5089644;28;19920;-68
2022/11/25 00:14:53;;;;;;;;;;;6.90;99.90;;;;;;5092727;28;20411;-69
2022/11/25 00:17:19;;;;;;;;;;;6.90;99.90;;;;;;5091320;28;19924;-68
2022/11/25 00:19:44;;;;;;;;;;;6.90;99.90;;;;;;5073767;28;19928;-68
2022/11/25 00:22:09;;;;;;;;;;;6.90;99.90;;;;;;5091592;28;19924;-69
2022/11/25 00:24:35;;;;;;;;;;;6.90;99.90;;;;;;5091555;28;19924;-68
2022/11/25 00:27:03;;;;;;;;;;;6.90;99.90;;;;;;5089728;28;19920;-69
2022/11/25 00:29:29;;;;;;;;;;;6.90;99.90;;;;;;5091492;28;19924;-69
2022/11/25 00:31:54;;;;;;;;;;;6.80;99.90;;;;;;5072131;28;19930;-68
2022/11/25 00:34:20;;;;;;;;;;;6.80;99.90;;;;;;5091287;28;19920;-69
2022/11/25 00:36:45;;;;;;;;;;;6.80;99.90;;;;;;5090448;28;19920;-68
2022/11/25 00:39:15;;;;;;;;;;;6.80;99.90;;;;;;5087187;28;20448;-69
2022/11/25 00:44:40;;;;;;;;;;;6.80;99.90;;;;;;5095878;28;20038;-68
2022/11/25 00:47:07;;;;;;;;;;;6.80;99.90;;;;;;5090451;28;19920;-68
2022/11/25 00:49:33;;;;;;;;;;;6.90;99.90;;;;;;5086897;28;19924;-68
2022/11/25 00:51:59;;;;;;;;;;;6.90;99.90;;;;;;5090237;28;19988;-68
2022/11/25 00:54:24;;;;;;;;;;;6.90;99.90;;;;;;5083920;28;19932;-68
2022/11/25 00:56:50;;;;;;;;;;;6.90;99.90;;;;;;5088127;28;20482;-68
2022/11/25 00:59:15;;;;;;;;;;;6.90;99.90;;;;;;5088190;28;19924;-69
2022/11/25 01:01:40;;;;;;;;;;;6.90;99.90;;;;;;5090665;28;19934;-68
2022/11/25 01:04:06;;;;;;;;;;;6.90;99.90;;;;;;5088909;28;19920;-69
2022/11/25 01:06:32;;;;;;;;;;;6.90;99.90;;;;;;5092160;28;19920;-68
2022/11/25 01:08:58;;;;;;;;;;;7.00;99.90;;;;;;5089825;28;20455;-68
2022/11/25 01:11:23;;;;;;;;;;;7.00;99.90;;;;;;5091071;28;20010;-68
2022/11/25 01:13:49;;;;;;;;;;;7.10;99.90;;;;;;5089395;28;19951;-68
2022/11/25 01:16:18;;;;;;;;;;;7.20;99.90;;;;;;5088280;28;20006;-68
2022/11/25 01:18:44;;;;;;;;;;;7.20;99.90;;;;;;5091291;28;20474;-69
2022/11/25 01:21:14;;;;;;;;;;;7.20;99.90;;;;;;5089655;28;19924;-68
2022/11/25 01:23:40;;;;;;;;;;;7.20;99.90;;;;;;5092531;28;19977;-68
2022/11/25 01:26:07;;;;;;;;;;;7.20;99.90;;;;;;5091645;28;19920;-68
2022/11/25 01:28:32;;;;;;;;;;;7.10;99.90;;;;;;5091064;28;20002;-68
2022/11/25 01:31:02;;;;;;;;;;;7.20;99.90;;;;;;5087011;28;20015;-68
2022/11/25 01:33:31;;;;;;;;;;;7.10;99.90;;;;;;5087154;28;19920;-68
2022/11/25 01:36:00;;;;;;;;;;;7.10;99.90;;;;;;5072451;28;19926;-68
2022/11/25 01:38:26;;;;;;;;;;;7.10;99.90;;;;;;5090924;28;19923;-68
2022/11/25 01:40:51;;;;;;;;;;;7.10;99.90;;;;;;5091860;28;19931;-68
2022/11/25 01:43:17;;;;;;;;;;;7.10;99.90;;;;;;5086069;28;19920;-68
2022/11/25 01:45:42;;;;;;;;;;;7.10;99.90;;;;;;5090495;28;20401;-68
2022/11/25 01:48:11;;;;;;;;;;;7.10;99.90;;;;;;5089172;28;19927;-69
2022/11/25 01:50:37;;;;;;;;;;;7.00;99.90;;;;;;5081948;28;19920;-68
2022/11/25 01:53:04;;;;;;;;;;;7.10;99.90;;;;;;5067418;28;20011;-68
2022/11/25 01:55:32;;;;;;;;;;;7.10;99.90;;;;;;5089692;28;19946;-68
2022/11/25 01:57:57;;;;;;;;;;;7.10;99.90;;;;;;5090186;28;19927;-68
2022/11/25 02:00:23;;;;;;;;;;;7.10;99.90;;;;;;5089164;28;19928;-68
2022/11/25 02:02:51;;;;;;;;;;;7.20;99.90;;;;;;5090074;28;19956;-68
2022/11/25 02:05:19;;;;;;;;;;;7.20;99.90;;;;;;5091394;28;19920;-69
2022/11/25 02:07:47;;;;;;;;;;;7.20;99.90;;;;;;5101700;28;19920;-68
2022/11/25 02:10:18;;;;;;;;;;;7.20;99.90;;;;;;5095302;28;20384;-69
2022/11/25 02:12:44;;;;;;;;;;;7.30;99.90;;;;;;5087799;28;19969;-68
2022/11/25 02:15:10;;;;;;;;;;;7.30;99.90;;;;;;5088622;28;20027;-68
2022/11/25 02:17:36;;;;;;;;;;;7.30;99.90;;;;;;5089574;28;20069;-68
2022/11/25 02:20:04;;;;;;;;;;;7.30;99.90;;;;;;5089727;28;19924;-68
2022/11/25 02:22:42;;;;;;;;;;;7.30;99.90;;;;;;5089242;28;20305;-68
2022/11/25 02:25:14;;;;;;;;;;;7.30;99.90;;;;;;5090246;28;19920;-68
2022/11/25 02:27:41;;;;;;;;;;;7.30;99.90;;;;;;5094298;28;19924;-68
2022/11/25 02:30:07;;;;;;;;;;;7.30;99.90;;;;;;5089952;28;20038;-68
2022/11/25 02:32:33;;;;;;;;;;;7.30;99.90;;;;;;5088664;28;20224;-68
2022/11/25 02:34:58;;;;;;;;;;;7.40;99.90;;;;;;5088772;28;19967;-68
2022/11/25 02:37:24;;;;;;;;;;;7.40;99.90;;;;;;5088530;28;19920;-68
2022/11/25 02:39:50;;;;;;;;;;;7.40;99.90;;;;;;5090741;28;20326;-68
2022/11/25 02:42:16;;;;;;;;;;;7.30;99.90;;;;;;5088570;28;20006;-68
2022/11/25 02:44:42;;;;;;;;;;;7.40;99.90;;;;;;5091902;28;19978;-69
2022/11/25 02:47:07;;;;;;;;;;;7.40;99.90;;;;;;5087009;28;19959;-69
2022/11/25 02:49:32;;;;;;;;;;;7.40;99.90;;;;;;5089248;28;19935;-69
2022/11/25 02:51:58;;;;;;;;;;;7.40;99.90;;;;;;5086871;28;19927;-69
2022/11/25 02:54:23;;;;;;;;;;;7.50;99.90;;;;;;5089642;28;19925;-68
2022/11/25 02:56:49;;;;;;;;;;;7.40;99.90;;;;;;5088085;28;19927;-69
2022/11/25 02:59:14;;;;;;;;;;;7.40;99.90;;;;;;5090501;28;19920;-69
2022/11/25 03:01:40;;;;;;;;;;;7.40;99.90;;;;;;5089478;28;19932;-69
2022/11/25 03:04:05;;;;;;;;;;;7.40;99.90;;;;;;5081763;28;19931;-68
2022/11/25 03:06:31;;;;;;;;;;;7.40;99.90;;;;;;5086872;28;20022;-68
2022/11/25 03:08:57;;;;;;;;;;;7.40;99.90;;;;;;5071160;28;19981;-69
2022/11/25 03:12:17;;;;;;;;;;;7.40;99.90;;;;;;5089395;28;19943;-69
2022/11/25 03:14:11;;;;;;;;;;;7.40;99.90;;;;;;5087146;28;19985;-69
2022/11/25 03:16:36;;;;;;;;;;;7.50;99.90;;;;;;5097146;28;19924;-69
2022/11/25 03:19:02;;;;;;;;;;;7.50;99.90;;;;;;5094946;28;19920;-69
2022/11/25 03:21:27;;;;;;;;;;;7.50;99.90;;;;;;5093280;28;19946;-69
2022/11/25 03:23:53;;;;;;;;;;;7.50;99.90;;;;;;5091948;28;20038;-68
2022/11/25 03:26:18;;;;;;;;;;;7.50;99.90;;;;;;5071113;28;19943;-69
2022/11/25 03:28:44;;;;;;;;;;;7.50;99.90;;;;;;5091436;28;19924;-68
2022/11/25 03:31:09;;;;;;;;;;;7.50;99.90;;;;;;5085602;28;19930;-69
2022/11/25 03:33:35;;;;;;;;;;;7.50;99.90;;;;;;5093178;28;19924;-69
2022/11/25 03:36:00;;;;;;;;;;;7.50;99.90;;;;;;5093407;28;20303;-68
2022/11/25 03:38:26;;;;;;;;;;;7.50;99.90;;;;;;5092165;28;19920;-68
2022/11/25 03:40:51;;;;;;;;;;;7.50;99.90;;;;;;5091224;28;20014;-69
2022/11/25 03:43:17;;;;;;;;;;;7.50;99.90;;;;;;5093432;28;19965;-68
2022/11/25 03:45:42;;;;;;;;;;;7.50;99.90;;;;;;5089629;28;20007;-69
2022/11/25 03:48:08;;;;;;;;;;;7.50;99.90;;;;;;5091096;28;19977;-69
2022/11/25 03:50:33;;;;;;;;;;;7.50;99.90;;;;;;5096694;28;19932;-68
2022/11/25 03:52:59;;;;;;;;;;;7.50;99.90;;;;;;5090484;28;19924;-68
2022/11/25 03:55:24;;;;;;;;;;;7.50;99.90;;;;;;5073031;28;19928;-68
2022/11/25 03:57:50;;;;;;;;;;;7.50;99.90;;;;;;5090592;28;19924;-69
2022/11/25 04:00:15;;;;;;;;;;;7.50;99.90;;;;;;5089474;28;19967;-69
2022/11/25 04:02:41;;;;;;;;;;;7.50;99.90;;;;;;5092171;28;19931;-69
2022/11/25 04:05:06;;;;;;;;;;;7.50;99.90;;;;;;5087394;28;20018;-69
2022/11/25 04:07:32;;;;;;;;;;;7.60;99.90;;;;;;5077404;28;19969;-69
2022/11/25 04:09:57;;;;;;;;;;;7.60;99.90;;;;;;5091086;28;19920;-68
2022/11/25 04:15:07;;;;;;;;;;;7.60;99.90;;;;;;5089045;28;19924;-68
2022/11/25 04:17:32;;;;;;;;;;;7.60;99.90;;;;;;5090055;28;19920;-68
2022/11/25 04:19:58;;;;;;;;;;;7.60;99.90;;;;;;5090815;28;19924;-69
2022/11/25 04:22:23;;;;;;;;;;;7.60;99.90;;;;;;5089847;28;19932;-68
2022/11/25 04:24:49;;;;;;;;;;;7.60;99.90;;;;;;5090140;28;20242;-69
2022/11/25 04:27:14;;;;;;;;;;;7.60;99.90;;;;;;5089407;28;19920;-69
2022/11/25 04:29:40;;;;;;;;;;;7.70;99.90;;;;;;5089082;28;20388;-69
2022/11/25 04:32:05;;;;;;;;;;;7.60;99.90;;;;;;5091371;28;19931;-69
2022/11/25 04:34:31;;;;;;;;;;;7.70;99.90;;;;;;5090434;28;19924;-69
2022/11/25 04:36:56;;;;;;;;;;;7.70;99.90;;;;;;5085875;28;20042;-69
2022/11/25 04:39:22;;;;;;;;;;;7.70;99.90;;;;;;5071879;28;20369;-69
2022/11/25 04:41:47;;;;;;;;;;;7.60;99.90;;;;;;5091641;28;19931;-69
2022/11/25 04:44:13;;;;;;;;;;;7.60;99.90;;;;;;5082835;28;20014;-69
2022/11/25 04:46:39;;;;;;;;;;;7.80;99.90;;;;;;5091122;28;19927;-69
2022/11/25 04:49:05;;;;;;;;;;;7.70;99.90;;;;;;5073179;28;19927;-69
2022/11/25 04:51:30;;;;;;;;;;;7.70;99.90;;;;;;5091126;28;19924;-69
2022/11/25 04:53:56;;;;;;;;;;;7.60;99.90;;;;;;5089038;28;19920;-69
2022/11/25 04:56:22;;;;;;;;;;;7.80;99.90;;;;;;5090894;28;19932;-69
2022/11/25 05:01:31;;;;;;;;;;;7.70;99.90;;;;;;5091568;28;19924;-69
2022/11/25 05:03:56;;;;;;;;;;;7.70;99.90;;;;;;5092699;28;19931;-69
2022/11/25 05:06:22;;;;;;;;;;;7.70;99.90;;;;;;5091210;28;20420;-69
2022/11/25 05:08:48;;;;;;;;;;;7.70;99.90;;;;;;5091432;28;19924;-69
2022/11/25 05:11:13;;;;;;;;;;;7.70;99.90;;;;;;5089676;28;19924;-69
2022/11/25 05:13:39;;;;;;;;;;;7.60;99.90;;;;;;5074610;28;19931;-69
2022/11/25 05:16:05;;;;;;;;;;;7.60;99.90;;;;;;5095114;28;20350;-69
2022/11/25 05:18:30;;;;;;;;;;;7.60;99.90;;;;;;5089749;28;19928;-69
2022/11/25 05:21:01;;;;;;;;;;;7.60;99.90;;;;;;5089650;28;19934;-69
2022/11/25 05:23:26;;;;;;;;;;;7.60;99.90;;;;;;5088731;28;20009;-69
2022/11/25 05:25:52;;;;;;;;;;;7.60;99.90;;;;;;5092279;28;19948;-69
2022/11/25 05:28:17;;;;;;;;;;;7.50;99.90;;;;;;5072691;28;19927;-69
2022/11/25 05:30:44;;;;;;;;;;;7.50;99.90;;;;;;5091730;28;19928;-69
2022/11/25 05:33:09;;;;;;;;;;;7.50;99.90;;;;;;5092578;28;19946;-69
2022/11/25 05:35:35;;;;;;;;;;;7.50;99.90;;;;;;5091564;28;19920;-69
2022/11/25 05:38:02;;;;;;;;;;;7.50;99.90;;;;;;5072487;28;20381;-69
2022/11/25 05:40:29;;;;;;;;;;;7.50;99.90;;;;;;5089355;28;19947;-69
2022/11/25 05:42:54;;;;;;;;;;;7.50;99.90;;;;;;5090866;28;19924;-68
2022/11/25 05:45:20;;;;;;;;;;;7.50;99.90;;;;;;5085796;28;19981;-68
2022/11/25 05:47:45;;;;;;;;;;;7.50;99.90;;;;;;5093099;28;19926;-68
2022/11/25 05:50:11;;;;;;;;;;;7.60;99.90;;;;;;5095402;28;20738;-68
2022/11/25 05:52:36;;;;;;;;;;;7.50;99.90;;;;;;5089627;28;19924;-69
2022/11/25 05:55:02;;;;;;;;;;;7.50;99.90;;;;;;5091677;28;19939;-69
2022/11/25 05:57:28;;;;;;;;;;;7.60;99.90;;;;;;5090093;28;20367;-69
2022/11/25 05:59:53;;;;;;;;;;;7.60;99.90;;;;;;5090275;28;19973;-69
2022/11/25 06:02:18;;;;;;;;;;;7.60;99.90;;;;;;5085607;28;19924;-69
2022/11/25 06:04:44;;;;;;;;;;;7.60;99.90;;;;;;5088710;28;19924;-69
2022/11/25 06:07:09;;;;;;;;;;;7.60;99.90;;;;;;5089299;28;20011;-69
2022/11/25 06:09:35;;;;;;;;;;;7.60;99.90;;;;;;5088562;28;19924;-69
2022/11/25 06:12:00;;;;;;;;;;;7.60;99.90;;;;;;5088698;28;19999;-69
2022/11/25 06:14:26;;;;;;;;;;;7.60;99.90;;;;;;5090491;28;20446;-69
2022/11/25 06:16:52;;;;;;;;;;;7.60;99.90;;;;;;5088301;28;19920;-69
2022/11/25 06:19:17;;;;;;;;;;;7.60;99.90;;;;;;5086923;28;20041;-69
2022/11/25 06:21:43;;;;;;;;;;;7.70;99.90;;;;;;5087237;28;19932;-69
2022/11/25 06:24:08;;;;;;;;;;;7.70;99.90;;;;;;5088235;28;19924;-69
2022/11/25 06:26:34;;;;;;;;;;;7.70;99.90;;;;;;5090186;28;19956;-69
2022/11/25 06:28:59;;;;;;;;;;;7.70;99.90;;;;;;5087963;28;20345;-69
2022/11/25 06:31:25;;;;;;;;;;;7.60;99.90;;;;;;5086302;28;19956;-69
2022/11/25 06:33:51;;;;;;;;;;;7.60;99.90;;;;;;5087257;28;19920;-69
2022/11/25 06:36:17;;;;;;;;;;;7.60;99.90;;;;;;5091265;28;19963;-69
2022/11/25 06:38:44;;;;;;;;;;;7.70;99.90;;;;;;5089130;28;19936;-69
2022/11/25 06:41:09;;;;;;;;;;;7.70;99.90;;;;;;5088640;28;20409;-68
2022/11/25 06:43:35;;;;;;;;;;;7.70;99.90;;;;;;5089287;28;20034;-68
2022/11/25 06:46:04;;;;;;;;;;;7.70;99.90;;;;;;5088174;28;19924;-69
2022/11/25 06:48:30;;;;;;;;;;;7.70;99.90;;;;;;5091148;28;19927;-69
2022/11/25 06:50:56;;;;;;;;;;;7.70;99.90;;;;;;5085950;28;19942;-69
2022/11/25 06:53:22;;;;;;;;;;;7.70;99.90;;;;;;5088809;28;19924;-69
2022/11/25 06:55:47;;;;;;;;;;;7.70;99.90;;;;;;5088675;28;19928;-69
2022/11/25 06:58:12;;;;;;;;;;;7.70;99.90;;;;;;5089268;28;19928;-68
2022/11/25 07:00:38;;;;;;;;;;;7.70;99.90;;;;;;5069185;28;19925;-69
2022/11/25 07:03:03;;;;;;;;;;;7.70;99.90;;;;;;5090922;28;19931;-69
2022/11/25 07:05:29;;;;;;;;;;;7.70;99.90;;;;;;5088697;28;19920;-69
2022/11/25 07:07:56;;;;;;;;;;;7.70;99.90;;;;;;5089022;28;19920;-69
2022/11/25 07:10:22;;;;;;;;;;;7.70;99.90;;;;;;5087518;28;19963;-69
2022/11/25 07:12:47;;;;;;;;;;;7.60;99.90;;;;;;5090015;28;19958;-69
2022/11/25 07:15:13;;;;;;;;;;;7.60;99.90;;;;;;5102372;28;20011;-69
2022/11/25 07:17:38;;;;;;;;;;;7.60;99.90;;;;;;5089731;28;19927;-69
2022/11/25 07:20:04;;;;;;;;;;;7.50;99.90;;;;;;5070698;28;20329;-69
2022/11/25 07:22:29;;;;;;;;;;;7.50;99.90;;;;;;5091773;28;19920;-69
2022/11/25 07:24:55;;;;;;;;;;;7.60;99.90;;;;;;5089524;28;19931;-69
2022/11/25 07:27:20;;;;;;;;;;;7.60;99.90;;;;;;5091683;28;19931;-69
2022/11/25 07:29:47;;;;;;;;;;;7.60;99.90;;;;;;5090923;28;19935;-69
2022/11/25 07:32:12;;;;;;;;;;;7.60;99.90;;;;;;5079542;28;19928;-69
2022/11/25 07:34:37;;;;;;;;;;;7.60;99.90;;;;;;5086649;28;19920;-69
2022/11/25 07:37:03;;;;;;;;;;;7.60;99.90;;;;;;5085415;28;19925;-69
2022/11/25 07:39:28;;;;;;;;;;;7.60;99.90;;;;;;5074011;28;19935;-69
2022/11/25 07:41:54;;;;;;;;;;;7.60;99.90;;;;;;5082558;28;20020;-69
2022/11/25 07:44:20;;;;;;;;;;;7.60;99.90;;;;;;5090949;28;19924;-69
2022/11/25 07:46:47;;;;;;;;;;;7.60;99.90;;;;;;5087243;28;19981;-69
2022/11/25 07:49:20;;;;;;;;;;;7.60;99.90;;;;;;5087588;28;19924;-69
2022/11/25 07:51:53;;;;;;;;;;;7.50;99.90;;;;;;5088780;28;19924;-69
2022/11/25 07:54:19;;;;;;;;;;;7.50;99.90;;;;;;5080150;28;19953;-69
2022/11/25 07:56:45;;;;;;;;;;;7.40;99.90;;;;;;5083175;28;19920;-69
2022/11/25 07:59:15;;;;;;;;;;;7.40;99.90;;;;;;5089785;28;19924;-69
2022/11/25 08:01:41;;;;;;;;;;;7.30;99.90;;;;;;5093715;28;20006;-69
2022/11/25 08:04:07;;;;;;;;;;;7.30;99.90;;;;;;5088754;28;19927;-68
2022/11/25 08:06:35;;;;;;;;;;;7.30;99.90;;;;;;5092564;28;19920;-69
2022/11/25 08:09:01;;;;;;;;;;;7.40;99.90;;;;;;5090767;28;19920;-69
2022/11/25 08:11:28;;;;;;;;;;;7.40;99.90;;;;;;5093755;28;19969;-69
2022/11/25 08:13:53;;;;;;;;;;;7.40;99.90;;;;;;5091945;28;19924;-68
2022/11/25 08:16:20;;;;;;;;;;;7.40;99.90;;;;;;5092226;28;19928;-68
2022/11/25 08:18:45;;;;;;;;;;;7.50;99.90;;;;;;5091335;28;19931;-69
2022/11/25 08:21:12;;;;;;;;;;;7.40;99.90;;;;;;5090122;28;20292;-69
2022/11/25 08:23:38;;;;;;;;;;;7.50;99.90;;;;;;5100275;28;19920;-69
2022/11/25 08:26:04;;;;;;;;;;;7.40;99.90;;;;;;5092350;28;19928;-69
2022/11/25 08:28:30;;;;;;;;;;;7.40;99.90;;;;;;5091403;28;20331;-69
2022/11/25 08:31:28;;;;;;;;;;;7.40;99.90;;;;;;5091105;28;19994;-69
2022/11/25 08:33:54;;;;;;;;;;;7.40;99.90;;;;;;5037789;28;19923;-69
2022/11/25 08:36:19;;;;;;;;;;;7.40;99.90;;;;;;5094065;28;20010;-69
2022/11/25 08:38:45;;;;;;;;;;;7.40;99.90;;;;;;5093761;28;19928;-69
2022/11/25 08:41:12;;;;;;;;;;;7.40;99.90;;;;;;5095436;28;19932;-69
2022/11/25 08:43:38;;;;;;;;;;;7.50;99.90;;;;;;5090871;28;19927;-69
2022/11/25 08:46:06;;;;;;;;;;;7.40;99.90;;;;;;5091889;28;19928;-69
2022/11/25 08:48:31;;;;;;;;;;;7.50;99.90;;;;;;5088052;28;20393;-69
2022/11/25 08:50:57;;;;;;;;;;;7.50;99.90;;;;;;5087275;28;19973;-70
2022/11/25 08:53:22;;;;;;;;;;;7.50;99.90;;;;;;5092980;28;19924;-70
2022/11/25 08:55:48;;;;;;;;;;;7.60;99.90;;;;;;5091577;28;20003;-69
2022/11/25 08:58:13;;;;;;;;;;;7.70;99.90;;;;;;5089164;28;19924;-69
2022/11/25 09:00:40;;;;;;;;;;;7.70;99.90;;;;;;5087936;28;20289;-69
2022/11/25 09:03:06;;;;;;;;;;;7.80;99.90;;;;;;5091421;28;20022;-70
2022/11/25 09:05:34;;;;;;;;;;;7.90;99.90;;;;;;5091983;28;20333;-69
2022/11/25 09:08:01;;;;;;;;;;;7.90;99.90;;;;;;5083497;28;20371;-69
2022/11/25 09:10:27;;;;;;;;;;;8.10;99.90;;;;;;5083828;28;20004;-69
2022/11/25 09:12:52;;;;;;;;;;;8.10;99.90;;;;;;5089093;28;20412;-69
2022/11/25 09:15:18;;;;;;;;;;;8.20;99.90;;;;;;5092986;28;19924;-69
2022/11/25 09:17:43;;;;;;;;;;;8.20;99.90;;;;;;5072043;28;19935;-69
2022/11/25 09:20:09;;;;;;;;;;;8.20;99.90;;;;;;5090429;28;19925;-69
2022/11/25 09:22:35;;;;;;;;;;;8.20;99.90;;;;;;5088658;28;20254;-69
2022/11/25 09:25:00;;;;;;;;;;;8.10;99.90;;;;;;5090203;28;19927;-69
2022/11/25 09:27:26;;;;;;;;;;;8.10;99.90;;;;;;5091487;28;19924;-69
2022/11/25 09:29:51;;;;;;;;;;;8.20;99.90;;;;;;5085972;28;19971;-69
2022/11/25 09:32:17;;;;;;;;;;;8.20;99.90;;;;;;5101255;28;20378;-69
2022/11/25 09:34:42;;;;;;;;;;;8.20;99.90;;;;;;5087944;28;20349;-69
2022/11/25 09:37:08;;;;;;;;;;;8.20;99.90;;;;;;5090358;28;19920;-69
2022/11/25 09:39:34;;;;;;;;;;;8.20;99.90;;;;;;5090607;28;20492;-69
2022/11/25 09:48:30;;;;;;;;;;;8.40;99.90;;;;;;4991863;28;19921;-69
2022/11/25 09:51:12;;;;;;;;;;;8.40;99.90;;;;;;4993720;28;19925;-69
2022/11/25 09:53:46;;;;;;;;;;;8.50;99.90;;;;;;5073043;28;19963;-69
2022/11/25 09:56:26;;;;;;;;;;;8.50;99.90;;;;;;5103144;28;19963;-69
2022/11/25 09:59:13;;;;;;;;;;;8.50;99.90;;;;;;5090647;28;19924;-69
2022/11/25 10:01:47;;;;;;;;;;;8.50;99.90;;;;;;5088861;28;19993;-69
2022/11/25 10:04:16;;;;;;;;;;;8.60;99.90;;;;;;5093553;28;19947;-68
2022/11/25 10:06:44;;;;;;;;;;;8.60;99.90;;;;;;5090679;28;20023;-69
2022/11/25 10:09:11;;;;;;;;;;;8.60;99.90;;;;;;5091049;28;20253;-69
2022/11/25 10:11:50;;;;;;;;;;;8.70;99.90;;;;;;5077627;28;19924;-69
2022/11/25 10:14:20;;;;;;;;;;;8.70;99.90;;;;;;5091025;28;20368;-69
2022/11/25 10:16:51;;;;;;;;;;;8.70;99.90;;;;;;5080481;28;19919;-69
2022/11/25 10:19:25;;;;;;;;;;;8.70;99.90;;;;;;5087623;28;19920;-68
2022/11/25 10:21:51;;;;;;;;;;;8.80;99.90;;;;;;5083316;28;20018;-69
2022/11/25 10:24:17;;;;;;;;;;;8.80;99.90;;;;;;5089965;28;20014;-69
2022/11/25 10:26:44;;;;;;;;;;;8.90;99.90;;;;;;5092817;28;19927;-69
2022/11/25 10:29:12;;;;;;;;;;;8.90;99.90;;;;;;5087833;28;19924;-69
2022/11/25 10:31:38;;;;;;;;;;;8.90;99.90;;;;;;5087326;28;20011;-69
2022/11/25 10:34:16;;;;;;;;;;;8.90;99.90;;;;;;5086876;28;20542;-69
2022/11/25 10:36:42;;;;;;;;;;;9.00;99.90;;;;;;5080049;28;19946;-69
2022/11/25 10:39:13;;;;;;;;;;;9.00;99.90;;;;;;5078823;28;19925;-69
2022/11/25 10:41:58;;;;;;;;;;;9.10;99.90;;;;;;5084565;28;19960;-69
2022/11/25 10:44:27;;;;;;;;;;;9.20;99.90;;;;;;5088749;28;19939;-69
2022/11/25 10:47:11;;;;;;;;;;;9.20;99.90;;;;;;5082836;28;19924;-69
2022/11/25 10:49:45;;;;;;;;;;;9.20;99.90;;;;;;5083573;28;19955;-69
2022/11/25 10:52:12;;;;;;;;;;;9.30;99.90;;;;;;5083617;28;19931;-68
2022/11/25 10:54:37;;;;;;;;;;;9.30;99.90;;;;;;5088497;28;20565;-69
2022/11/25 10:57:14;;;;;;;;;;;9.30;99.90;;;;;;5089487;28;20204;-68
2022/11/25 10:59:40;;;;;;;;;;;9.40;99.90;;;;;;5083408;28;19924;-69
2022/11/25 11:02:12;;;;;;;;;;;9.40;99.90;;;;;;5088643;28;19935;-69
2022/11/25 11:04:49;;;;;;;;;;;9.50;99.90;;;;;;5091775;28;19988;-69
2022/11/25 11:07:14;;;;;;;;;;;9.60;99.90;;;;;;5110846;22;19932;-68
2022/11/25 11:09:40;;;;;;;;;;;9.70;99.90;;;;;;5068822;28;19928;-69
2022/11/25 11:12:20;;;;;;;;;;;9.90;99.90;;;;;;5086310;28;19942;-69
2022/11/25 11:14:46;;;;;;;;;;;10.00;99.90;;;;;;5088878;28;19927;-69
2022/11/25 11:17:26;;;;;;;;;;;10.00;99.90;;;;;;5062148;28;19928;-69
2022/11/25 11:20:02;;;;;;;;;;;10.00;99.90;;;;;;5072755;28;19924;-69
2022/11/25 11:22:28;;;;;;;;;;;10.00;99.90;;;;;;5085762;28;19963;-69
2022/11/25 11:24:54;;;;;;;;;;;;;;;;;;5085425;28;19978;-69
2022/11/25 11:27:21;;;;;;;;;;;10.10;99.90;;;;;;5085818;28;20011;-69
2022/11/25 11:29:47;;;;;;;;;;;10.20;99.90;;;;;;5080268;28;20027;-68
2022/11/25 11:32:21;;;;;;;;;;;10.20;99.90;;;;;;5083875;28;20317;-69
2022/11/25 11:34:51;;;;;;;;;;;10.20;99.90;;;;;;5070519;28;20348;-68
2022/11/25 11:37:35;;;;;;;;;;;10.20;99.90;;;;;;5086606;28;20023;-69
2022/11/25 11:40:01;;;;;;;;;;;10.10;99.90;;;;;;5090990;28;20419;-69
2022/11/25 11:42:32;;;;;;;;;;;10.10;99.90;;;;;;5072761;28;19919;-69
2022/11/25 11:45:20;;;;;;;;;;;10.10;99.90;;;;;;5086472;28;20488;-69
2022/11/25 11:48:01;;;;;;;;;;;10.20;99.90;;;;;;5088273;28;19924;-68
2022/11/25 11:50:38;;;;;;;;;;;10.20;99.90;;;;;;5105693;28;19935;-68
2022/11/25 11:53:17;;;;;;;;;;;10.20;99.90;;;;;;5100673;28;19928;-68
2022/11/25 11:55:55;;;;;;;;;;;10.30;99.90;;;;;;5092311;28;20430;-68
2022/11/25 11:58:32;;;;;;;;;;;10.40;99.90;;;;;;5074805;28;19920;-68
2022/11/25 12:01:19;;;;;;;;;;;10.40;99.90;;;;;;5088374;28;20448;-68
2022/11/25 12:04:08;;;;;;;;;;;10.50;99.90;;;;;;5088776;28;19924;-68
2022/11/25 12:06:36;;;;;;;;;;;10.40;99.90;;;;;;5063341;28;19928;-68
2022/11/25 12:09:03;;;;;;;;;;;10.40;99.90;;;;;;5093285;28;20327;-68
2022/11/25 12:11:36;;;;;;;;;;;10.30;99.90;;;;;;5090121;28;21368;-68
2022/11/25 12:14:13;;;;;;;;;;;10.30;99.90;;;;;;5093382;28;20400;-68
2022/11/25 12:16:42;;;;;;;;;;;10.20;99.90;;;;;;5087780;28;19977;-68
2022/11/25 12:19:18;;;;;;;;;;;10.20;99.90;;;;;;5075619;28;20002;-68
2022/11/25 12:21:46;;;;;;;;;;;10.20;99.90;;;;;;5103774;28;19920;-67
2022/11/25 12:24:18;;;;;;;;;;;10.20;99.90;;;;;;5097178;28;19923;-69
2022/11/25 12:26:48;;;;;;;;;;;10.30;99.90;;;;;;5073428;28;19927;-68
2022/11/25 12:29:32;;;;;;;;;;;10.30;99.90;;;;;;5089704;28;19950;-68
2022/11/25 12:32:05;;;;;;;;;;;10.30;99.90;;;;;;5092591;28;19920;-68
2022/11/25 12:34:36;;;;;;;;;;;10.30;99.90;;;;;;5093149;28;20420;-68
2022/11/25 12:37:14;;;;;;;;;;;10.30;99.90;;;;;;5090784;28;20290;-68
2022/11/25 12:39:45;;;;;;;;;;;10.30;99.90;;;;;;5088912;28;19932;-69
2022/11/25 12:42:16;;;;;;;;;;;10.30;99.90;;;;;;5090718;28;19931;-68
2022/11/25 12:44:45;;;;;;;;;;;10.20;99.90;;;;;;5086119;28;19927;-68
2022/11/25 12:47:10;;;;;;;;;;;10.30;99.90;;;;;;5090652;28;19920;-68
2022/11/25 12:49:47;;;;;;;;;;;10.20;99.90;;;;;;5084336;28;20009;-68
2022/11/25 12:52:34;;;;;;;;;;;10.20;99.90;;;;;;5081213;28;19920;-68
2022/11/25 12:55:15;;;;;;;;;;;10.20;99.90;;;;;;5091622;28;19924;-69
2022/11/25 12:57:46;;;;;;;;;;;10.20;99.90;;;;;;5093853;28;20028;-69
2022/11/25 13:00:20;;;;;;;;;;;10.20;99.90;;;;;;5089760;28;20389;-69
2022/11/25 13:02:55;;;;;;;;;;;10.20;99.90;;;;;;5093107;28;19928;-69
2022/11/25 13:05:29;;;;;;;;;;;10.20;99.90;;;;;;5072091;28;19977;-69
2022/11/25 13:08:05;;;;;;;;;;;10.20;99.90;;;;;;5087854;28;20687;-69
2022/11/25 13:10:46;;;;;;;;;;;10.20;99.90;;;;;;5104806;28;19923;-69
2022/11/25 13:13:12;;;;;;;;;;;10.20;99.90;;;;;;5105449;28;20415;-68
2022/11/25 13:15:41;;;;;;;;;;;10.10;99.90;;;;;;5073002;28;19924;-68
2022/11/25 13:18:15;;;;;;;;;;;10.00;99.90;;;;;;5090217;28;19924;-68
2022/11/25 13:20:51;;;;;;;;;;;10.00;99.90;;;;;;5088813;28;19927;-68
2022/11/25 13:23:16;;;;;;;;;;;10.00;99.90;;;;;;5083572;28;19924;-68
2022/11/25 13:25:43;;;;;;;;;;;9.90;99.90;;;;;;5081824;28;19924;-68
2022/11/25 13:28:28;;;;;;;;;;;9.90;99.90;;;;;;5091076;28;20365;-68
2022/11/25 13:30:53;;;;;;;;;;;9.90;99.90;;;;;;5087518;28;19974;-68
2022/11/25 13:33:18;;;;;;;;;;;9.90;99.90;;;;;;5089952;28;19963;-68
2022/11/25 13:35:54;;;;;;;;;;;9.90;99.90;;;;;;5071767;28;19927;-68
2022/11/25 13:38:42;;;;;;;;;;;9.90;99.90;;;;;;5081083;28;19936;-68
2022/11/25 13:41:14;;;;;;;;;;;9.90;99.90;;;;;;5096144;28;20081;-68
2022/11/25 13:44:00;;;;;;;;;;;10.00;99.90;;;;;;5082602;28;20036;-68
2022/11/25 13:46:31;;;;;;;;;;;10.00;99.90;;;;;;5066372;28;20573;-68
2022/11/25 13:48:57;;;;;;;;;;;10.10;99.90;;;;;;5081950;28;20353;-68
2022/11/25 13:51:23;;;;;;;;;;;10.10;99.90;;;;;;5084119;28;19927;-68
2022/11/25 13:53:53;;;;;;;;;;;10.20;99.90;;;;;;5084411;28;19924;-68
2022/11/25 13:56:25;;;;;;;;;;;10.20;99.90;;;;;;5089267;28;19924;-68
2022/11/25 13:59:09;;;;;;;;;;;10.30;99.90;;;;;;5088610;28;20057;-68
2022/11/25 14:01:35;;;;;;;;;;;10.30;99.90;;;;;;5087597;28;19966;-68
2022/11/25 14:04:04;;;;;;;;;;;10.30;99.90;;;;;;5091201;28;19928;-69
2022/11/25 14:06:35;;;;;;;;;;;10.30;99.90;;;;;;5085907;28;19928;-68
2022/11/25 14:09:02;;;;;;;;;;;10.30;99.90;;;;;;5090203;28;19924;-68
2022/11/25 14:11:34;;;;;;;;;;;10.30;99.90;;;;;;5089089;28;19924;-68
2022/11/25 14:13:59;;;;;;;;;;;10.30;99.90;;;;;;5089344;28;19979;-68
2022/11/25 14:16:28;;;;;;;;;;;10.30;99.90;;;;;;5084755;28;20269;-68
2022/11/25 14:18:56;;;;;;;;;;;10.40;99.90;;;;;;5089292;28;19931;-68
2022/11/25 14:21:22;;;;;;;;;;;10.30;99.90;;;;;;5093157;28;19942;-69
2022/11/25 14:24:17;;;;;;;;;;;10.30;99.90;;;;;;5072647;28;20562;-69
2022/11/25 14:26:44;;;;;;;;;;;10.40;99.90;;;;;;5073954;28;19924;-68
2022/11/25 14:29:18;;;;;;;;;;;10.40;99.90;;;;;;5089488;28;20011;-68
2022/11/25 14:31:45;;;;;;;;;;;10.40;99.90;;;;;;5077163;28;19935;-69
2022/11/25 14:34:17;;;;;;;;;;;10.40;99.90;;;;;;5087892;28;20551;-68
2022/11/25 14:36:44;;;;;;;;;;;10.30;99.90;;;;;;5090161;28;20008;-74
2022/11/25 14:39:16;;;;;;;;;;;10.30;99.90;;;;;;5088066;28;19931;-74
2022/11/25 14:42:01;;;;;;;;;;;10.20;99.90;;;;;;5084531;28;20373;-74
2022/11/25 14:44:34;;;;;;;;;;;10.10;99.90;;;;;;5090488;28;19921;-74
2022/11/25 14:47:02;;;;;;;;;;;10.10;99.90;;;;;;5087863;28;19931;-74
2022/11/25 14:50:03;;;;;;;;;;;10.00;99.90;;;;;;5089408;28;19969;-74